createdAt,value
2017-02-18T00:00:33.583Z,0
2017-02-18T00:01:34.278Z,0
2017-02-18T00:02:34.978Z,0
2017-02-18T00:03:35.654Z,0
2017-02-18T00:04:36.367Z,0
2017-02-18T00:05:37.050Z,0
2017-02-18T00:06:37.755Z,0
2017-02-18T00:07:38.445Z,0
2017-02-18T00:08:39.114Z,0
2017-02-18T00:09:39.840Z,0
2017-02-18T00:10:40.540Z,0
2017-02-18T00:11:41.247Z,0
2017-02-18T00:12:41.998Z,0
2017-02-18T00:13:42.694Z,0
2017-02-18T00:14:43.394Z,0
2017-02-18T00:15:44.080Z,0
2017-02-18T00:16:44.786Z,0
2017-02-18T00:17:45.470Z,0
2017-02-18T00:18:46.193Z,0
2017-02-18T00:19:46.913Z,0
2017-02-18T00:20:47.637Z,0
2017-02-18T00:21:48.321Z,0
2017-02-18T00:22:49.062Z,0
2017-02-18T00:23:49.726Z,0
2017-02-18T00:24:50.434Z,0
2017-02-18T00:25:51.107Z,0
2017-02-18T00:26:51.844Z,0
2017-02-18T00:27:52.568Z,0
2017-02-18T00:28:53.304Z,0
2017-02-18T00:29:53.979Z,0
2017-02-18T00:30:54.683Z,0
2017-02-18T00:31:55.384Z,0
2017-02-18T00:32:56.083Z,0
2017-02-18T00:33:56.799Z,0
2017-02-18T00:34:57.525Z,0
2017-02-18T00:35:58.244Z,0
2017-02-18T00:36:58.929Z,0
2017-02-18T00:37:59.728Z,0
2017-02-18T00:39:00.415Z,0
2017-02-18T00:40:01.122Z,0
2017-02-18T00:41:01.820Z,0
2017-02-18T00:42:02.520Z,0
2017-02-18T00:43:03.243Z,0
2017-02-18T00:44:03.958Z,0
2017-02-18T00:45:04.666Z,0
2017-02-18T00:46:05.368Z,0
2017-02-18T00:47:06.074Z,0
2017-02-18T00:48:06.772Z,0
2017-02-18T00:49:07.502Z,0
2017-02-18T00:50:08.204Z,0
2017-02-18T00:51:08.920Z,0
2017-02-18T00:52:09.688Z,0
2017-02-18T00:53:10.403Z,0
2017-02-18T00:54:11.112Z,0
2017-02-18T00:55:11.792Z,0
2017-02-18T00:56:12.488Z,0
2017-02-18T00:57:13.163Z,0
2017-02-18T00:58:13.899Z,0
2017-02-18T00:59:14.613Z,0
2017-02-18T01:00:15.296Z,0
2017-02-18T01:01:16.017Z,0
2017-02-18T01:02:16.693Z,0
2017-02-18T01:03:17.383Z,0
2017-02-18T01:04:18.073Z,0
2017-02-18T01:05:18.761Z,0
2017-02-18T01:06:19.441Z,0
2017-02-18T01:07:20.136Z,0
2017-02-18T01:08:20.825Z,0
2017-02-18T01:09:21.503Z,0
2017-02-18T01:10:22.232Z,0
2017-02-18T01:11:22.901Z,0
2017-02-18T01:12:23.612Z,0
2017-02-18T01:13:24.331Z,0
2017-02-18T01:14:25.028Z,0
2017-02-18T01:15:25.715Z,0
2017-02-18T01:16:26.418Z,0
2017-02-18T01:17:27.114Z,0
2017-02-18T01:18:27.805Z,0
2017-02-18T01:19:28.485Z,0
2017-02-18T01:20:29.181Z,0
2017-02-18T01:21:29.907Z,0
2017-02-18T01:22:30.594Z,0
2017-02-18T01:23:31.303Z,0
2017-02-18T01:24:31.995Z,0
2017-02-18T01:25:32.674Z,0
2017-02-18T01:26:33.383Z,0
2017-02-18T01:27:34.067Z,0
2017-02-18T01:28:34.826Z,0
2017-02-18T01:29:35.520Z,0
2017-02-18T01:30:36.246Z,0
2017-02-18T01:31:36.950Z,0
2017-02-18T01:32:37.649Z,0
2017-02-18T01:33:38.321Z,0
2017-02-18T01:34:39.003Z,0
2017-02-18T01:35:39.708Z,0
2017-02-18T01:36:40.403Z,0
2017-02-18T01:37:41.093Z,0
2017-02-18T01:38:41.769Z,0
2017-02-18T01:39:42.495Z,0
2017-02-18T01:40:43.178Z,0
2017-02-18T01:41:43.855Z,0
2017-02-18T01:42:44.532Z,0
2017-02-18T01:43:45.242Z,0
2017-02-18T01:44:45.934Z,0
2017-02-18T01:45:46.611Z,0
2017-02-18T01:46:47.331Z,0
2017-02-18T01:47:48.025Z,0
2017-02-18T01:48:48.711Z,0
2017-02-18T01:49:49.393Z,0
2017-02-18T01:50:50.072Z,0
2017-02-18T01:51:50.750Z,0
2017-02-18T01:52:51.474Z,0
2017-02-18T01:53:52.154Z,0
2017-02-18T01:54:52.864Z,0
2017-02-18T01:55:53.552Z,0
2017-02-18T01:56:54.243Z,0
2017-02-18T01:57:54.936Z,0
2017-02-18T01:58:55.632Z,0
2017-02-18T01:59:56.334Z,0
2017-02-18T02:00:57.011Z,0
2017-02-18T02:01:57.706Z,0
2017-02-18T02:02:58.404Z,0
2017-02-18T02:03:59.079Z,0
2017-02-18T02:04:59.767Z,0
2017-02-18T02:06:00.448Z,0
2017-02-18T02:07:01.140Z,0
2017-02-18T02:08:01.813Z,0
2017-02-18T02:09:02.554Z,0
2017-02-18T02:10:03.260Z,0
2017-02-18T02:11:03.944Z,0
2017-02-18T02:12:04.651Z,0
2017-02-18T02:13:05.356Z,0
2017-02-18T02:14:06.023Z,0
2017-02-18T02:15:06.720Z,0
2017-02-18T02:16:07.395Z,0
2017-02-18T02:17:08.070Z,0
2017-02-18T02:18:08.742Z,0
2017-02-18T02:19:09.408Z,0
2017-02-18T02:20:10.101Z,0
2017-02-18T02:21:10.799Z,0
2017-02-18T02:22:11.476Z,0
2017-02-18T02:23:12.152Z,0
2017-02-18T02:24:12.823Z,0
2017-02-18T02:25:13.498Z,0
2017-02-18T02:26:14.170Z,0
2017-02-18T02:27:14.835Z,0
2017-02-18T02:28:15.513Z,0
2017-02-18T02:29:16.180Z,0
2017-02-18T02:30:16.854Z,0
2017-02-18T02:31:17.530Z,0
2017-02-18T02:32:18.208Z,0
2017-02-18T02:33:18.874Z,0
2017-02-18T02:34:19.549Z,0
2017-02-18T02:35:20.238Z,0
2017-02-18T02:36:20.931Z,0
2017-02-18T02:37:21.605Z,0
2017-02-18T02:38:22.276Z,0
2017-02-18T02:39:22.952Z,0
2017-02-18T02:40:23.627Z,0
2017-02-18T02:41:24.329Z,0
2017-02-18T02:42:25.006Z,0
2017-02-18T02:43:25.695Z,0
2017-02-18T02:44:26.383Z,0
2017-02-18T02:45:27.094Z,0
2017-02-18T02:46:27.766Z,0
2017-02-18T02:47:28.450Z,0
2017-02-18T02:48:29.151Z,0
2017-02-18T02:49:29.825Z,0
2017-02-18T02:50:30.502Z,0
2017-02-18T02:51:31.188Z,0
2017-02-18T02:52:31.890Z,0
2017-02-18T02:53:32.611Z,0
2017-02-18T02:54:33.239Z,0
2017-02-18T02:55:33.918Z,0
2017-02-18T02:56:34.638Z,0
2017-02-18T02:57:35.307Z,0
2017-02-18T02:58:36.001Z,0
2017-02-18T02:59:36.723Z,0
2017-02-18T03:00:37.454Z,0
2017-02-18T03:01:38.149Z,0
2017-02-18T03:02:38.820Z,0
2017-02-18T03:03:39.491Z,0
2017-02-18T03:04:40.165Z,0
2017-02-18T03:05:40.850Z,0
2017-02-18T03:06:41.541Z,0
2017-02-18T03:07:42.249Z,0
2017-02-18T03:08:42.962Z,0
2017-02-18T03:09:43.673Z,0
2017-02-18T03:10:44.308Z,0
2017-02-18T03:11:44.972Z,0
2017-02-18T03:12:45.640Z,0
2017-02-18T03:13:46.335Z,0
2017-02-18T03:14:47.012Z,0
2017-02-18T03:15:47.736Z,0
2017-02-18T03:16:48.432Z,0
2017-02-18T03:17:49.107Z,0
2017-02-18T03:18:49.780Z,0
2017-02-18T03:19:50.455Z,0
2017-02-18T03:20:51.140Z,0
2017-02-18T03:21:51.859Z,0
2017-02-18T03:22:52.561Z,0
2017-02-18T03:23:53.250Z,0
2017-02-18T03:24:53.949Z,0
2017-02-18T03:25:54.648Z,0
2017-02-18T03:26:55.306Z,0
2017-02-18T03:27:55.983Z,0
2017-02-18T03:28:56.667Z,0
2017-02-18T03:29:57.333Z,0
2017-02-18T03:30:58.034Z,0
2017-02-18T03:31:58.723Z,0
2017-02-18T03:32:59.417Z,0
2017-02-18T03:34:00.102Z,0
2017-02-18T03:35:00.794Z,0
2017-02-18T03:36:01.478Z,0
2017-02-18T03:37:02.187Z,0
2017-02-18T03:38:02.889Z,0
2017-02-18T03:39:03.585Z,0
2017-02-18T03:40:04.295Z,0
2017-02-18T03:41:05.002Z,0
2017-02-18T03:42:05.703Z,0
2017-02-18T03:43:06.381Z,0
2017-02-18T03:44:07.102Z,0
2017-02-18T03:45:07.785Z,0
2017-02-18T03:46:08.491Z,0
2017-02-18T03:47:09.196Z,0
2017-02-18T03:48:09.870Z,0
2017-02-18T03:49:10.570Z,0
2017-02-18T03:50:11.252Z,0
2017-02-18T03:51:11.957Z,0
2017-02-18T03:52:12.634Z,0
2017-02-18T03:53:13.349Z,0
2017-02-18T03:54:14.032Z,0
2017-02-18T03:55:14.708Z,0
2017-02-18T03:56:15.419Z,0
2017-02-18T03:57:16.118Z,0
2017-02-18T03:58:16.797Z,0
2017-02-18T03:59:17.486Z,0
2017-02-18T04:00:18.182Z,0
2017-02-18T04:01:18.872Z,0
2017-02-18T04:02:19.560Z,0
2017-02-18T04:03:20.256Z,0
2017-02-18T04:04:20.961Z,0
2017-02-18T04:05:21.651Z,0
2017-02-18T04:06:22.335Z,0
2017-02-18T04:07:23.024Z,0
2017-02-18T04:08:23.715Z,0
2017-02-18T04:09:24.384Z,0
2017-02-18T04:10:25.064Z,0
2017-02-18T04:11:25.749Z,0
2017-02-18T04:12:26.452Z,0
2017-02-18T04:13:27.143Z,0
2017-02-18T04:14:27.832Z,0
2017-02-18T04:15:28.569Z,0
2017-02-18T04:16:29.227Z,0
2017-02-18T04:17:29.912Z,0
2017-02-18T04:18:30.644Z,0
2017-02-18T04:19:31.334Z,0
2017-02-18T04:20:32.010Z,0
2017-02-18T04:21:32.703Z,0
2017-02-18T04:22:33.379Z,0
2017-02-18T04:23:34.046Z,0
2017-02-18T04:24:34.708Z,0
2017-02-18T04:25:35.399Z,0
2017-02-18T04:26:36.072Z,0
2017-02-18T04:27:36.747Z,0
2017-02-18T04:28:37.422Z,0
2017-02-18T04:29:38.100Z,0
2017-02-18T04:30:38.765Z,0
2017-02-18T04:31:39.436Z,0
2017-02-18T04:32:40.108Z,0
2017-02-18T04:33:40.771Z,0
2017-02-18T04:34:41.439Z,0
2017-02-18T04:35:42.119Z,0
2017-02-18T04:36:42.784Z,0
2017-02-18T04:37:43.450Z,0
2017-02-18T04:38:44.131Z,0
2017-02-18T04:39:44.792Z,0
2017-02-18T04:40:45.463Z,0
2017-02-18T04:41:46.141Z,0
2017-02-18T04:42:46.814Z,0
2017-02-18T04:43:47.547Z,0
2017-02-18T04:44:48.228Z,0
2017-02-18T04:45:48.905Z,0
2017-02-18T04:46:49.591Z,0
2017-02-18T04:47:50.296Z,0
2017-02-18T04:48:50.973Z,0
2017-02-18T04:49:51.673Z,0
2017-02-18T04:50:52.351Z,0
2017-02-18T04:51:53.040Z,0
2017-02-18T04:52:53.743Z,0
2017-02-18T04:53:54.412Z,0
2017-02-18T04:54:55.091Z,0
2017-02-18T04:55:55.757Z,0
2017-02-18T04:56:56.432Z,0
2017-02-18T04:57:57.105Z,0
2017-02-18T04:58:57.778Z,0
2017-02-18T04:59:58.455Z,0
2017-02-18T05:00:59.122Z,0
2017-02-18T05:01:59.799Z,0
2017-02-18T05:03:00.521Z,0
2017-02-18T05:04:01.194Z,0
2017-02-18T05:05:01.907Z,0
2017-02-18T05:06:02.595Z,0
2017-02-18T05:07:03.273Z,0
2017-02-18T05:08:03.982Z,0
2017-02-18T05:09:04.704Z,0
2017-02-18T05:10:05.339Z,0
2017-02-18T05:11:06.006Z,0
2017-02-18T05:12:06.707Z,0
2017-02-18T05:13:07.383Z,0
2017-02-18T05:14:08.056Z,0
2017-02-18T05:15:08.730Z,0
2017-02-18T05:16:09.402Z,0
2017-02-18T05:17:10.071Z,0
2017-02-18T05:18:10.759Z,0
2017-02-18T05:19:11.461Z,0
2017-02-18T05:20:12.144Z,0
2017-02-18T05:21:12.857Z,0
2017-02-18T05:22:13.540Z,0
2017-02-18T05:23:14.212Z,0
2017-02-18T05:24:14.886Z,0
2017-02-18T05:25:15.564Z,0
2017-02-18T05:26:16.240Z,0
2017-02-18T05:27:16.909Z,0
2017-02-18T05:28:17.586Z,0
2017-02-18T05:29:18.285Z,0
2017-02-18T05:30:19.027Z,0
2017-02-18T05:31:19.711Z,0
2017-02-18T05:32:20.391Z,0
2017-02-18T05:33:21.083Z,0
2017-02-18T05:34:21.773Z,0
2017-02-18T05:35:22.438Z,0
2017-02-18T05:36:23.112Z,0
2017-02-18T05:37:23.778Z,0
2017-02-18T05:38:24.455Z,0
2017-02-18T05:39:25.167Z,0
2017-02-18T05:40:25.869Z,0
2017-02-18T05:41:26.574Z,0
2017-02-18T05:42:27.245Z,0
2017-02-18T05:43:27.939Z,0
2017-02-18T05:44:28.613Z,0
2017-02-18T05:45:29.295Z,0
2017-02-18T05:46:29.974Z,0
2017-02-18T05:47:30.660Z,0
2017-02-18T05:48:31.335Z,0
2017-02-18T05:49:32.038Z,0
2017-02-18T05:50:32.709Z,0
2017-02-18T05:51:33.383Z,0
2017-02-18T05:52:34.054Z,0
2017-02-18T05:53:34.730Z,0
2017-02-18T05:54:35.401Z,0
2017-02-18T05:55:36.069Z,0
2017-02-18T05:56:36.777Z,0
2017-02-18T05:57:37.462Z,0
2017-02-18T05:58:38.141Z,0
2017-02-18T05:59:38.824Z,0
2017-02-18T06:00:39.523Z,0
2017-02-18T06:01:40.209Z,0
2017-02-18T06:02:40.883Z,0
2017-02-18T06:03:41.563Z,0
2017-02-18T06:04:42.233Z,4
2017-02-18T06:05:42.896Z,4
2017-02-18T06:06:43.572Z,0
2017-02-18T06:07:44.245Z,4
2017-02-18T06:08:44.909Z,4
2017-02-18T06:09:45.582Z,4
2017-02-18T06:10:46.259Z,4
2017-02-18T06:11:46.926Z,4
2017-02-18T06:12:47.639Z,4
2017-02-18T06:13:48.335Z,8
2017-02-18T06:14:49.037Z,8
2017-02-18T06:15:49.714Z,16
2017-02-18T06:16:50.390Z,12
2017-02-18T06:17:51.070Z,12
2017-02-18T06:18:51.744Z,16
2017-02-18T06:19:52.412Z,16
2017-02-18T06:20:53.082Z,16
2017-02-18T06:21:53.752Z,28
2017-02-18T06:22:54.428Z,28
2017-02-18T06:23:55.103Z,32
2017-02-18T06:24:55.770Z,36
2017-02-18T06:25:56.450Z,44
2017-02-18T06:26:57.140Z,56
2017-02-18T06:27:57.826Z,40
2017-02-18T06:28:58.507Z,56
2017-02-18T06:29:59.203Z,60
2017-02-18T06:30:59.895Z,72
2017-02-18T06:32:00.577Z,76
2017-02-18T06:33:01.247Z,68
2017-02-18T06:34:01.922Z,72
2017-02-18T06:35:02.595Z,72
2017-02-18T06:36:03.277Z,92
2017-02-18T06:37:03.939Z,100
2017-02-18T06:38:04.609Z,112
2017-02-18T06:39:05.293Z,108
2017-02-18T06:40:05.998Z,112
2017-02-18T06:41:06.682Z,112
2017-02-18T06:42:07.410Z,120
2017-02-18T06:43:08.020Z,124
2017-02-18T06:44:08.708Z,124
2017-02-18T06:45:09.377Z,124
2017-02-18T06:46:10.058Z,144
2017-02-18T06:47:10.723Z,160
2017-02-18T06:48:11.401Z,164
2017-02-18T06:49:12.068Z,172
2017-02-18T06:50:12.735Z,196
2017-02-18T06:51:13.414Z,204
2017-02-18T06:52:14.088Z,220
2017-02-18T06:53:14.757Z,232
2017-02-18T06:54:15.491Z,280
2017-02-18T06:55:16.207Z,276
2017-02-18T06:56:16.876Z,280
2017-02-18T06:57:17.549Z,284
2017-02-18T06:58:18.223Z,324
2017-02-18T06:59:18.907Z,344
2017-02-18T07:00:19.586Z,408
2017-02-18T07:01:20.282Z,356
2017-02-18T07:02:20.980Z,320
2017-02-18T07:03:21.658Z,328
2017-02-18T07:04:22.348Z,344
2017-02-18T07:05:23.047Z,352
2017-02-18T07:06:23.729Z,400
2017-02-18T07:07:24.432Z,444
2017-02-18T07:08:25.143Z,552
2017-02-18T07:09:25.830Z,584
2017-02-18T07:10:26.542Z,576
2017-02-18T07:11:27.269Z,516
2017-02-18T07:12:27.963Z,580
2017-02-18T07:13:28.639Z,612
2017-02-18T07:14:29.330Z,708
2017-02-18T07:15:30.009Z,672
2017-02-18T07:16:30.681Z,732
2017-02-18T07:17:31.351Z,720
2017-02-18T07:18:32.031Z,744
2017-02-18T07:19:32.737Z,768
2017-02-18T07:20:33.496Z,852
2017-02-18T07:21:34.210Z,868
2017-02-18T07:22:34.913Z,916
2017-02-18T07:23:35.593Z,824
2017-02-18T07:24:36.305Z,908
2017-02-18T07:25:37.006Z,892
2017-02-18T07:26:37.715Z,1176
2017-02-18T07:27:38.406Z,1012
2017-02-18T07:28:39.099Z,948
2017-02-18T07:29:39.773Z,1016
2017-02-18T07:30:40.456Z,1108
2017-02-18T07:31:41.135Z,1168
2017-02-18T07:32:41.836Z,1208
2017-02-18T07:33:42.527Z,1188
2017-02-18T07:34:43.236Z,1152
2017-02-18T07:35:43.915Z,1132
2017-02-18T07:36:44.601Z,1152
2017-02-18T07:37:45.301Z,1224
2017-02-18T07:38:46.003Z,1096
2017-02-18T07:39:46.702Z,1108
2017-02-18T07:40:47.424Z,1084
2017-02-18T07:41:48.148Z,1292
2017-02-18T07:42:48.821Z,1404
2017-02-18T07:43:49.483Z,1300
2017-02-18T07:44:50.154Z,1312
2017-02-18T07:45:50.852Z,1408
2017-02-18T07:46:51.566Z,1352
2017-02-18T07:47:52.246Z,1536
2017-02-18T07:48:52.926Z,1480
2017-02-18T07:49:53.619Z,1444
2017-02-18T07:50:54.325Z,1540
2017-02-18T07:51:54.994Z,1404
2017-02-18T07:52:55.699Z,1328
2017-02-18T07:53:56.413Z,1368
2017-02-18T07:54:57.093Z,1432
2017-02-18T07:55:57.818Z,1372
2017-02-18T07:56:58.505Z,1308
2017-02-18T07:57:59.201Z,1312
2017-02-18T07:58:59.908Z,1424
2017-02-18T08:00:00.614Z,1716
2017-02-18T08:01:01.315Z,1788
2017-02-18T08:02:01.993Z,1672
2017-02-18T08:03:02.678Z,1588
2017-02-18T08:04:03.377Z,1652
2017-02-18T08:05:04.081Z,1688
2017-02-18T08:06:04.766Z,1684
2017-02-18T08:07:05.465Z,1916
2017-02-18T08:08:06.162Z,1808
2017-02-18T08:09:06.874Z,1880
2017-02-18T08:10:07.561Z,1660
2017-02-18T08:11:08.274Z,1476
2017-02-18T08:12:08.949Z,1580
2017-02-18T08:13:09.677Z,1912
2017-02-18T08:14:10.349Z,1812
2017-02-18T08:15:11.029Z,1844
2017-02-18T08:16:11.717Z,1808
2017-02-18T08:17:12.415Z,1704
2017-02-18T08:18:13.115Z,1664
2017-02-18T08:19:13.819Z,1724
2017-02-18T08:20:14.534Z,1692
2017-02-18T08:21:15.220Z,1880
2017-02-18T08:22:15.925Z,2020
2017-02-18T08:23:16.627Z,2000
2017-02-18T08:24:17.356Z,1872
2017-02-18T08:25:18.047Z,1736
2017-02-18T08:26:18.754Z,1568
2017-02-18T08:27:19.452Z,1524
2017-02-18T08:28:20.146Z,1552
2017-02-18T08:29:20.832Z,1552
2017-02-18T08:30:21.528Z,1572
2017-02-18T08:31:22.228Z,1700
2017-02-18T08:32:22.904Z,1784
2017-02-18T08:33:23.608Z,1888
2017-02-18T08:34:24.304Z,2160
2017-02-18T08:35:25.004Z,2228
2017-02-18T08:36:25.678Z,2156
2017-02-18T08:37:26.391Z,2340
2017-02-18T08:38:27.091Z,2204
2017-02-18T08:39:27.772Z,2140
2017-02-18T08:40:28.463Z,2400
2017-02-18T08:41:29.158Z,2664
2017-02-18T08:42:29.857Z,2672
2017-02-18T08:43:30.555Z,2632
2017-02-18T08:44:31.251Z,2480
2017-02-18T08:45:31.934Z,2372
2017-02-18T08:46:32.644Z,2332
2017-02-18T08:47:33.335Z,2488
2017-02-18T08:48:34.018Z,2600
2017-02-18T08:49:34.726Z,2580
2017-02-18T08:50:35.407Z,2392
2017-02-18T08:51:36.096Z,2248
2017-02-18T08:52:36.835Z,2100
2017-02-18T08:53:37.522Z,2204
2017-02-18T08:54:38.208Z,2456
2017-02-18T08:55:38.931Z,2728
2017-02-18T08:56:39.610Z,2592
2017-02-18T08:57:40.279Z,2752
2017-02-18T08:58:40.993Z,2588
2017-02-18T08:59:41.679Z,2940
2017-02-18T09:00:42.382Z,2896
2017-02-18T09:01:43.095Z,3044
2017-02-18T09:02:43.797Z,3752
2017-02-18T09:03:44.467Z,3244
2017-02-18T09:04:45.153Z,3020
2017-02-18T09:05:45.887Z,4092
2017-02-18T09:06:46.559Z,4892
2017-02-18T09:07:47.263Z,4872
2017-02-18T09:08:47.973Z,4860
2017-02-18T09:09:48.656Z,4796
2017-02-18T09:10:49.365Z,4156
2017-02-18T09:11:50.068Z,4020
2017-02-18T09:12:50.757Z,3568
2017-02-18T09:13:51.451Z,3712
2017-02-18T09:14:52.186Z,3228
2017-02-18T09:15:52.867Z,3276
2017-02-18T09:16:53.571Z,3552
2017-02-18T09:17:54.277Z,3148
2017-02-18T09:18:54.983Z,3100
2017-02-18T09:19:55.719Z,2932
2017-02-18T09:20:56.427Z,3288
2017-02-18T09:21:57.136Z,3760
2017-02-18T09:22:57.829Z,3536
2017-02-18T09:23:58.555Z,3448
2017-02-18T09:24:59.281Z,3476
2017-02-18T09:25:59.984Z,3376
2017-02-18T09:27:00.682Z,3388
2017-02-18T09:28:01.438Z,3456
2017-02-18T09:29:02.093Z,3304
2017-02-18T09:30:02.787Z,3400
2017-02-18T09:31:03.520Z,3728
2017-02-18T09:32:04.209Z,3636
2017-02-18T09:33:04.956Z,3440
2017-02-18T09:34:05.644Z,3228
2017-02-18T09:35:06.350Z,2992
2017-02-18T09:36:07.054Z,2852
2017-02-18T09:37:07.752Z,2876
2017-02-18T09:38:08.439Z,2896
2017-02-18T09:39:09.147Z,2844
2017-02-18T09:40:09.835Z,2868
2017-02-18T09:41:10.531Z,3092
2017-02-18T09:42:11.247Z,3736
2017-02-18T09:43:11.980Z,3364
2017-02-18T09:44:12.693Z,4028
2017-02-18T09:45:13.388Z,4360
2017-02-18T09:46:14.101Z,4028
2017-02-18T09:47:14.822Z,3212
2017-02-18T09:48:15.542Z,3136
2017-02-18T09:49:16.272Z,3692
2017-02-18T09:50:16.966Z,3636
2017-02-18T09:51:17.677Z,3380
2017-02-18T09:52:18.429Z,3676
2017-02-18T09:53:19.165Z,3316
2017-02-18T09:54:19.848Z,3468
2017-02-18T09:55:20.629Z,4096
2017-02-18T09:56:21.352Z,4008
2017-02-18T09:57:22.079Z,4012
2017-02-18T09:58:22.853Z,3616
2017-02-18T09:59:23.525Z,4388
2017-02-18T10:00:24.262Z,3984
2017-02-18T10:01:24.957Z,3852
2017-02-18T10:02:25.690Z,3844
2017-02-18T10:03:26.371Z,3448
2017-02-18T10:04:27.073Z,3276
2017-02-18T10:05:27.816Z,3364
2017-02-18T10:06:28.498Z,3240
2017-02-18T10:07:29.233Z,3316
2017-02-18T10:08:29.977Z,3832
2017-02-18T10:09:30.703Z,4224
2017-02-18T10:10:31.417Z,4212
2017-02-18T10:11:32.151Z,4152
2017-02-18T10:12:32.822Z,3940
2017-02-18T10:13:33.560Z,3908
2017-02-18T10:14:34.323Z,3736
2017-02-18T10:15:35.067Z,3684
2017-02-18T10:16:35.772Z,3588
2017-02-18T10:17:36.489Z,3592
2017-02-18T10:18:37.183Z,3528
2017-02-18T10:19:37.899Z,3356
2017-02-18T10:20:38.605Z,3568
2017-02-18T10:21:39.285Z,3536
2017-02-18T10:22:39.976Z,3280
2017-02-18T10:23:40.685Z,3068
2017-02-18T10:24:41.394Z,3068
2017-02-18T10:25:42.074Z,3180
2017-02-18T10:26:42.785Z,3140
2017-02-18T10:27:43.490Z,2940
2017-02-18T10:28:44.234Z,2712
2017-02-18T10:29:44.900Z,2716
2017-02-18T10:30:45.597Z,3100
2017-02-18T10:31:46.370Z,3240
2017-02-18T10:32:47.091Z,3328
2017-02-18T10:33:47.774Z,3576
2017-02-18T10:34:48.501Z,3956
2017-02-18T10:35:49.214Z,4364
2017-02-18T10:36:49.962Z,4484
2017-02-18T10:37:50.720Z,4600
2017-02-18T10:38:51.468Z,4104
2017-02-18T10:39:52.140Z,3828
2017-02-18T10:40:52.857Z,3900
2017-02-18T10:41:53.600Z,4028
2017-02-18T10:42:54.344Z,3868
2017-02-18T10:43:55.045Z,3716
2017-02-18T10:44:55.779Z,3728
2017-02-18T10:45:56.519Z,3668
2017-02-18T10:46:57.245Z,3596
2017-02-18T10:47:57.973Z,3536
2017-02-18T10:48:58.756Z,3440
2017-02-18T10:49:59.474Z,3332
2017-02-18T10:51:00.219Z,3268
2017-02-18T10:52:00.950Z,3136
2017-02-18T10:53:01.644Z,3100
2017-02-18T10:54:02.433Z,3284
2017-02-18T10:55:03.178Z,3528
2017-02-18T10:56:03.936Z,3512
2017-02-18T10:57:04.657Z,3652
2017-02-18T10:58:05.366Z,3704
2017-02-18T10:59:06.095Z,4188
2017-02-18T11:00:06.837Z,4252
2017-02-18T11:01:07.576Z,4448
2017-02-18T11:02:08.284Z,4332
2017-02-18T11:03:09.015Z,4148
2017-02-18T11:04:09.765Z,4112
2017-02-18T11:05:10.479Z,3984
2017-02-18T11:06:11.227Z,4232
2017-02-18T11:07:11.997Z,4240
2017-02-18T11:08:12.693Z,4080
2017-02-18T11:09:13.422Z,4108
2017-02-18T11:10:14.163Z,4156
2017-02-18T11:11:14.909Z,3984
2017-02-18T11:12:15.593Z,3812
2017-02-18T11:13:16.313Z,3604
2017-02-18T11:14:17.051Z,3612
2017-02-18T11:15:17.760Z,3756
2017-02-18T11:16:18.461Z,3756
2017-02-18T11:17:19.183Z,4032
2017-02-18T11:18:19.884Z,3928
2017-02-18T11:19:20.606Z,4140
2017-02-18T11:20:21.312Z,4248
2017-02-18T11:21:22.035Z,4088
2017-02-18T11:22:22.780Z,3992
2017-02-18T11:23:23.459Z,3872
2017-02-18T11:24:24.145Z,3948
2017-02-18T11:25:24.878Z,4120
2017-02-18T11:26:25.586Z,3928
2017-02-18T11:27:26.359Z,4096
2017-02-18T11:28:27.130Z,4096
2017-02-18T11:29:27.830Z,4204
2017-02-18T11:30:28.549Z,4068
2017-02-18T11:31:29.244Z,3884
2017-02-18T11:32:29.947Z,3820
2017-02-18T11:33:30.662Z,3876
2017-02-18T11:34:31.377Z,3748
2017-02-18T11:35:32.066Z,3904
2017-02-18T11:36:32.785Z,3976
2017-02-18T11:37:33.541Z,3896
2017-02-18T11:38:34.265Z,4036
2017-02-18T11:39:34.956Z,3868
2017-02-18T11:40:35.684Z,3608
2017-02-18T11:41:36.396Z,3920
2017-02-18T11:42:37.107Z,4572
2017-02-18T11:43:37.851Z,5416
2017-02-18T11:44:38.776Z,5084
2017-02-18T11:45:39.465Z,4812
2017-02-18T11:46:40.230Z,5064
2017-02-18T11:47:40.925Z,4988
2017-02-18T11:48:41.602Z,4708
2017-02-18T11:49:42.441Z,4052
2017-02-18T11:50:43.227Z,3588
2017-02-18T11:51:43.972Z,3476
2017-02-18T11:52:44.681Z,3492
2017-02-18T11:53:45.365Z,3708
2017-02-18T11:54:46.054Z,4116
2017-02-18T11:55:46.760Z,4384
2017-02-18T11:56:47.477Z,4340
2017-02-18T11:57:48.217Z,4296
2017-02-18T11:58:48.939Z,4772
2017-02-18T11:59:49.616Z,5048
2017-02-18T12:00:50.321Z,4972
2017-02-18T12:01:51.004Z,4980
2017-02-18T12:02:51.744Z,5048
2017-02-18T12:03:52.485Z,5824
2017-02-18T12:04:53.188Z,6884
2017-02-18T12:05:53.929Z,6356
2017-02-18T12:06:54.618Z,5588
2017-02-18T12:07:55.302Z,4988
2017-02-18T12:08:55.996Z,4496
2017-02-18T12:09:56.696Z,4280
2017-02-18T12:10:57.398Z,4140
2017-02-18T12:11:58.088Z,3944
2017-02-18T12:12:58.802Z,3796
2017-02-18T12:13:59.496Z,3604
2017-02-18T12:15:00.214Z,3564
2017-02-18T12:16:00.932Z,3520
2017-02-18T12:17:01.665Z,3476
2017-02-18T12:18:02.352Z,3632
2017-02-18T12:19:03.075Z,3540
2017-02-18T12:20:03.767Z,3492
2017-02-18T12:21:04.514Z,3724
2017-02-18T12:22:05.291Z,3488
2017-02-18T12:23:06.161Z,3580
2017-02-18T12:24:06.812Z,3736
2017-02-18T12:25:07.569Z,3880
2017-02-18T12:26:08.299Z,4336
2017-02-18T12:27:09.063Z,4836
2017-02-18T12:28:09.795Z,4528
2017-02-18T12:29:10.559Z,4520
2017-02-18T12:30:11.309Z,4384
2017-02-18T12:31:12.094Z,4344
2017-02-18T12:32:12.777Z,4188
2017-02-18T12:33:13.545Z,3904
2017-02-18T12:34:14.241Z,3688
2017-02-18T12:35:14.983Z,3776
2017-02-18T12:36:15.812Z,3656
2017-02-18T12:37:16.573Z,3572
2017-02-18T12:38:17.317Z,3436
2017-02-18T12:39:18.014Z,3540
2017-02-18T12:40:18.770Z,3560
2017-02-18T12:41:19.479Z,3608
2017-02-18T12:42:20.177Z,3612
2017-02-18T12:43:20.895Z,3584
2017-02-18T12:44:21.625Z,3708
2017-02-18T12:45:22.349Z,3668
2017-02-18T12:46:23.060Z,3600
2017-02-18T12:47:23.776Z,3488
2017-02-18T12:48:24.471Z,3524
2017-02-18T12:49:25.157Z,3644
2017-02-18T12:50:25.873Z,3604
2017-02-18T12:51:26.642Z,3712
2017-02-18T12:52:27.420Z,3888
2017-02-18T12:53:28.147Z,3500
2017-02-18T12:54:28.885Z,3380
2017-02-18T12:55:29.599Z,3344
2017-02-18T12:56:30.315Z,3304
2017-02-18T12:57:31.034Z,3208
2017-02-18T12:58:31.800Z,3188
2017-02-18T12:59:32.516Z,3228
2017-02-18T13:00:33.222Z,3400
2017-02-18T13:01:33.917Z,3424
2017-02-18T13:02:34.611Z,3416
2017-02-18T13:03:35.326Z,3380
2017-02-18T13:04:36.063Z,3452
2017-02-18T13:05:36.770Z,3616
2017-02-18T13:06:37.512Z,3940
2017-02-18T13:07:38.208Z,4132
2017-02-18T13:08:38.925Z,4332
2017-02-18T13:09:39.674Z,4152
2017-02-18T13:10:40.385Z,3856
2017-02-18T13:11:41.083Z,3764
2017-02-18T13:12:41.837Z,4060
2017-02-18T13:13:42.534Z,3728
2017-02-18T13:14:43.305Z,3616
2017-02-18T13:15:44.057Z,3688
2017-02-18T13:16:44.854Z,3816
2017-02-18T13:17:45.641Z,3880
2017-02-18T13:18:46.372Z,3980
2017-02-18T13:19:47.110Z,4360
2017-02-18T13:20:47.819Z,4556
2017-02-18T13:21:48.575Z,4324
2017-02-18T13:22:49.329Z,4500
2017-02-18T13:23:50.065Z,4260
2017-02-18T13:24:50.816Z,4236
2017-02-18T13:25:51.570Z,4036
2017-02-18T13:26:52.313Z,3904
2017-02-18T13:27:53.002Z,3864
2017-02-18T13:28:53.808Z,3816
2017-02-18T13:29:54.591Z,3748
2017-02-18T13:30:55.293Z,3972
2017-02-18T13:31:55.989Z,3792
2017-02-18T13:32:56.678Z,3608
2017-02-18T13:33:57.388Z,3592
2017-02-18T13:34:58.083Z,3404
2017-02-18T13:35:58.781Z,3428
2017-02-18T13:36:59.487Z,3456
2017-02-18T13:38:00.172Z,3336
2017-02-18T13:39:00.853Z,3300
2017-02-18T13:40:01.548Z,3228
2017-02-18T13:41:02.240Z,3236
2017-02-18T13:42:02.951Z,3180
2017-02-18T13:43:03.640Z,3052
2017-02-18T13:44:04.343Z,3024
2017-02-18T13:45:05.044Z,3048
2017-02-18T13:46:05.728Z,3004
2017-02-18T13:47:06.416Z,2936
2017-02-18T13:48:07.143Z,2948
2017-02-18T13:49:07.832Z,2972
2017-02-18T13:50:08.516Z,2680
2017-02-18T13:51:09.215Z,2520
2017-02-18T13:52:09.902Z,2704
2017-02-18T13:53:10.663Z,2704
2017-02-18T13:54:11.376Z,2624
2017-02-18T13:55:12.142Z,2532
2017-02-18T13:56:12.852Z,2508
2017-02-18T13:57:13.574Z,2548
2017-02-18T13:58:14.265Z,2544
2017-02-18T13:59:14.962Z,2556
2017-02-18T14:00:15.661Z,2656
2017-02-18T14:01:16.364Z,2632
2017-02-18T14:02:17.080Z,2568
2017-02-18T14:03:17.817Z,2484
2017-02-18T14:04:18.541Z,2572
2017-02-18T14:05:19.245Z,2900
2017-02-18T14:06:19.983Z,2856
2017-02-18T14:07:20.735Z,2400
2017-02-18T14:08:21.434Z,2248